createdAt,value
2023-03-12T03:26:51.583Z,10.43
2023-03-12T03:29:18.768Z,12.02
2023-03-12T03:31:45.858Z,11.60
2023-03-12T03:34:14.471Z,11.95
2023-03-12T03:36:41.460Z,11.65
2023-03-12T03:39:08.422Z,10.60
2023-03-12T03:41:35.573Z,10.75
2023-03-12T03:44:02.591Z,12.13
2023-03-12T03:46:29.913Z,12.43
2023-03-12T03:48:58.008Z,11.05
2023-03-12T03:51:25.075Z,9.98
2023-03-12T03:53:52.394Z,10.57
2023-03-12T03:56:19.904Z,11.00
2023-03-12T03:58:47.344Z,8.73
2023-03-12T04:01:15.194Z,10.88
2023-03-12T04:03:42.597Z,9.90
2023-03-12T04:06:09.854Z,11.23
2023-03-12T04:08:37.944Z,11.63
2023-03-12T04:11:18.386Z,9.27
2023-03-12T04:13:46.362Z,9.45
2023-03-12T04:16:14.464Z,10.60
2023-03-12T04:18:45.457Z,12.10
2023-03-12T04:21:13.998Z,12.07
2023-03-12T04:23:41.481Z,9.40
2023-03-12T04:26:09.287Z,9.95
2023-03-12T04:28:39.431Z,10.77
2023-03-12T04:31:08.636Z,10.33
2023-03-12T04:33:39.231Z,11.75
2023-03-12T04:36:07.790Z,10.75
2023-03-12T04:38:35.843Z,10.82
2023-03-12T04:41:10.342Z,10.80
2023-03-12T04:43:37.680Z,11.80
2023-03-12T04:46:06.232Z,9.90
2023-03-12T04:48:34.665Z,11.13
2023-03-12T04:51:22.777Z,10.68
2023-03-12T04:53:49.872Z,10.23
2023-03-12T04:56:17.018Z,11.82
2023-03-12T04:58:45.431Z,11.20
2023-03-12T05:01:28.164Z,9.80
2023-03-12T05:03:55.760Z,11.13
2023-03-12T05:06:28.469Z,10.20
2023-03-12T05:08:55.608Z,8.90
2023-03-12T05:11:23.372Z,10.33
2023-03-12T05:13:50.909Z,11.02
2023-03-12T05:16:18.353Z,8.90
2023-03-12T05:18:48.641Z,8.90
2023-03-12T05:21:19.385Z,8.77
2023-03-12T05:23:47.831Z,9.23
2023-03-12T05:26:24.364Z,8.32
2023-03-12T05:28:52.384Z,9.38
2023-03-12T05:31:20.644Z,8.43
2023-03-12T05:33:52.887Z,9.23
2023-03-12T05:36:20.662Z,10.10
2023-03-12T05:38:47.740Z,10.10
2023-03-12T05:41:25.574Z,8.30
2023-03-12T05:43:54.847Z,8.95
2023-03-12T05:46:22.988Z,7.90
2023-03-12T05:48:50.578Z,8.40
2023-03-12T05:51:17.794Z,7.72
2023-03-12T05:53:45.275Z,9.23
2023-03-12T05:56:15.515Z,9.07
2023-03-12T05:58:42.657Z,8.82
2023-03-12T06:01:17.375Z,10.32
2023-03-12T06:03:47.122Z,8.63
2023-03-12T06:06:14.889Z,9.85
2023-03-12T06:08:45.556Z,7.75
2023-03-12T06:11:15.324Z,11.20
2023-03-12T06:13:42.601Z,8.95
2023-03-12T06:16:19.899Z,7.93
2023-03-12T06:18:54.997Z,7.67
2023-03-12T06:21:27.766Z,7.57
2023-03-12T06:23:55.559Z,8.15
2023-03-12T06:26:26.710Z,7.07
2023-03-12T06:28:54.747Z,7.63
2023-03-12T06:31:22.967Z,9.32
2023-03-12T06:33:56.486Z,7.55
2023-03-12T06:36:26.705Z,7.55
2023-03-12T06:38:57.038Z,6.68
2023-03-12T06:41:25.558Z,7.10
2023-03-12T06:43:52.674Z,9.93
2023-03-12T06:46:26.923Z,7.85
2023-03-12T06:48:54.877Z,6.18
2023-03-12T06:51:21.992Z,7.50
2023-03-12T06:53:55.196Z,8.02
2023-03-12T06:56:22.549Z,8.32
2023-03-12T06:58:51.601Z,7.87
2023-03-12T07:01:20.575Z,12.37
2023-03-12T07:03:47.872Z,6.43
2023-03-12T11:40:15.171Z,12.67
2023-03-12T11:43:00.577Z,23.10
2023-03-12T11:46:07.132Z,24.13
2023-03-12T11:49:06.370Z,27.02
2023-03-12T11:52:11.937Z,26.70
2023-03-12T11:55:33.518Z,26.70
2023-03-12T11:58:40.536Z,27.65
2023-03-12T12:01:24.728Z,28.60
2023-03-12T12:04:21.466Z,28.77
2023-03-12T12:07:31.541Z,28.08
2023-03-12T12:10:08.792Z,28.67
2023-03-12T12:13:11.554Z,28.35
2023-03-12T12:15:44.434Z,29.98
2023-03-12T12:18:26.401Z,30.13
2023-03-12T12:21:16.253Z,29.33
2023-03-12T12:24:20.802Z,29.70
2023-03-12T12:27:17.730Z,27.05
2023-03-12T12:30:27.198Z,29.00
2023-03-12T12:33:18.428Z,27.30
2023-03-12T12:35:46.387Z,22.20
2023-03-12T12:38:33.138Z,19.60
2023-03-12T12:41:28.650Z,20.00
2023-03-12T12:44:17.727Z,17.90
2023-03-12T12:46:54.824Z,20.47
2023-03-12T12:49:36.844Z,19.10
2023-03-12T12:52:08.628Z,17.90
2023-03-12T12:55:08.525Z,33.27
2023-03-12T12:58:05.127Z,24.60
2023-03-12T13:00:50.545Z,32.27
2023-03-12T13:03:24.392Z,40.47
2023-03-12T13:06:05.684Z,23.85
2023-03-12T13:08:45.024Z,21.08
2023-03-12T13:11:20.100Z,21.30
2023-03-12T13:14:03.636Z,22.08
2023-03-12T13:16:40.360Z,23.58
2023-03-12T13:19:18.361Z,24.43
2023-03-12T13:22:25.126Z,24.10
2023-03-12T13:25:19.339Z,25.67
2023-03-12T13:27:46.652Z,25.23
2023-03-12T13:30:34.867Z,25.83
2023-03-12T13:33:02.054Z,27.73
2023-03-12T13:35:37.725Z,28.05
2023-03-12T13:38:23.683Z,29.85
2023-03-12T13:40:54.784Z,28.27
2023-03-12T13:43:55.086Z,28.98
2023-03-12T13:46:34.752Z,31.05
2023-03-12T13:49:11.382Z,33.20
2023-03-12T13:52:23.674Z,28.42
2023-03-12T13:55:28.899Z,26.90
2023-03-12T13:58:23.753Z,26.40
2023-03-12T14:01:07.183Z,26.92
2023-03-12T14:03:45.740Z,26.23
2023-03-12T14:06:24.206Z,28.92
2023-03-12T14:09:24.353Z,27.45
2023-03-12T14:12:14.482Z,27.27
2023-03-12T14:14:56.666Z,33.28
2023-03-12T14:17:29.662Z,37.03
2023-03-12T14:20:18.532Z,34.57
2023-03-12T14:22:52.633Z,31.00
2023-03-12T14:25:28.745Z,72.32
2023-03-12T14:27:58.233Z,34.35
2023-03-12T14:30:38.831Z,43.72
2023-03-12T14:33:06.261Z,31.75
2023-03-12T14:35:51.947Z,43.43
2023-03-12T14:38:39.635Z,30.73
2023-03-12T14:41:17.378Z,36.90
2023-03-12T14:43:46.465Z,30.55
2023-03-12T14:46:24.777Z,100.57
2023-03-12T14:48:55.224Z,34.30
2023-03-12T14:51:28.739Z,35.17
2023-03-12T14:53:57.201Z,37.40
2023-03-12T14:56:33.083Z,57.08
2023-03-12T14:59:07.232Z,48.47
2023-03-12T15:01:39.623Z,28.33
2023-03-12T15:04:18.706Z,33.87
2023-03-12T15:06:59.234Z,25.33
2023-03-12T15:09:30.148Z,59.57
2023-03-12T15:12:02.779Z,39.03
2023-03-12T15:14:41.871Z,26.38
2023-03-12T15:17:22.486Z,18.20
2023-03-12T15:19:50.790Z,20.50
2023-03-12T15:22:24.851Z,32.05
2023-03-12T15:24:52.734Z,23.90
2023-03-12T15:27:28.319Z,22.48
2023-03-12T15:29:58.323Z,26.40
2023-03-12T15:32:27.360Z,26.05
2023-03-12T15:34:59.219Z,28.02
2023-03-12T15:37:40.780Z,40.40
2023-03-12T15:40:23.769Z,23.23
2023-03-12T15:42:51.143Z,24.08
2023-03-12T15:45:31.508Z,30.40
2023-03-12T15:47:58.862Z,24.92
2023-03-12T15:50:43.608Z,25.83
2023-03-12T15:53:19.484Z,34.17
2023-03-12T15:58:45.829Z,27.48
2023-03-12T16:01:18.774Z,26.40
2023-03-12T16:03:46.446Z,23.05
2023-03-12T16:06:17.601Z,21.83
2023-03-12T16:08:58.770Z,23.40
2023-03-12T16:11:35.335Z,20.23
2023-03-12T16:14:15.155Z,21.15
2023-03-12T16:16:42.341Z,22.33
2023-03-12T16:19:20.431Z,23.38
2023-03-12T16:21:47.956Z,19.58
2023-03-12T16:24:17.169Z,23.75
2023-03-12T16:26:52.485Z,27.10
2023-03-12T16:29:21.639Z,25.00
2023-03-12T16:32:02.800Z,22.60
2023-03-12T16:34:30.392Z,22.27
2023-03-12T16:36:58.044Z,29.30
2023-03-12T16:39:25.701Z,24.38
2023-03-12T16:41:53.720Z,25.00
2023-03-12T16:44:23.572Z,26.30
2023-03-12T16:46:52.740Z,24.40
2023-03-12T16:49:21.333Z,22.73
2023-03-12T16:51:50.884Z,23.40
2023-03-12T16:54:18.110Z,23.30
2023-03-12T16:56:48.430Z,23.90
2023-03-12T16:59:32.868Z,23.95
2023-03-12T17:02:02.276Z,26.50
2023-03-12T17:07:02.992Z,26.42
2023-03-12T17:09:30.205Z,26.53
2023-03-12T17:11:57.772Z,25.88
2023-03-12T17:14:25.234Z,26.17
2023-03-12T17:16:52.830Z,23.33
2023-03-12T17:19:20.080Z,22.88
2023-03-12T17:21:48.867Z,22.80
2023-03-12T17:24:16.194Z,25.07
2023-03-12T17:26:45.920Z,26.08
2023-03-12T17:29:15.591Z,22.52
2023-03-12T17:31:42.813Z,23.88
2023-03-12T17:34:10.405Z,22.17
2023-03-12T17:36:38.176Z,34.65
2023-03-12T17:39:05.831Z,41.90
2023-03-12T17:41:33.992Z,25.42
2023-03-12T17:44:02.286Z,22.83
2023-03-12T17:46:31.162Z,28.58
2023-03-12T17:48:58.772Z,28.02
2023-03-12T17:51:26.037Z,24.60
2023-03-12T17:53:53.840Z,23.45
2023-03-12T17:56:21.688Z,25.83
2023-03-12T17:58:49.648Z,27.50
2023-03-12T18:01:18.395Z,22.95
2023-03-12T18:03:45.553Z,26.05
2023-03-12T18:06:13.054Z,27.95
2023-03-12T18:08:40.487Z,25.95
2023-03-12T18:11:08.385Z,23.45
2023-03-12T18:13:40.757Z,23.20
2023-03-12T18:16:08.277Z,30.98
2023-03-12T18:18:35.516Z,41.70
2023-03-12T18:21:02.597Z,31.70
2023-03-12T18:23:29.779Z,34.83
2023-03-12T18:25:57.322Z,34.42
2023-03-12T18:28:24.527Z,34.63
2023-03-12T18:30:51.897Z,26.40
2023-03-12T18:33:19.551Z,31.30
2023-03-12T18:35:47.265Z,28.65
2023-03-12T18:38:14.416Z,26.92
2023-03-12T18:40:41.694Z,29.23
2023-03-12T18:43:09.027Z,24.85
2023-03-12T18:45:36.295Z,28.95
2023-03-12T18:48:04.732Z,26.63
2023-03-12T18:50:32.020Z,25.37
2023-03-12T18:52:59.399Z,28.00
2023-03-12T18:55:26.717Z,29.65
2023-03-12T18:57:54.034Z,32.55
2023-03-12T19:00:21.732Z,28.50
2023-03-12T19:02:48.983Z,28.27
2023-03-12T19:05:16.589Z,27.88
2023-03-12T19:07:44.110Z,33.65
2023-03-12T19:10:15.195Z,32.90
2023-03-12T19:12:52.245Z,33.97
2023-03-12T19:15:24.397Z,31.25
2023-03-12T19:17:51.887Z,34.27
2023-03-12T19:20:19.383Z,33.08
2023-03-12T19:22:46.635Z,35.67
2023-03-12T19:25:14.241Z,33.58
2023-03-12T19:27:41.668Z,40.30
2023-03-12T19:30:10.320Z,37.72
2023-03-12T19:32:43.656Z,41.92
2023-03-12T19:35:13.790Z,36.90
2023-03-12T19:37:42.480Z,39.13
2023-03-12T19:40:11.700Z,33.92
2023-03-12T19:42:39.449Z,38.58
2023-03-12T19:45:07.436Z,37.70
2023-03-12T19:47:34.558Z,32.75
2023-03-12T19:50:01.910Z,33.45
2023-03-12T19:52:30.095Z,35.17
2023-03-12T19:55:04.671Z,35.78
2023-03-12T19:57:34.802Z,29.92
2023-03-12T20:00:02.155Z,33.40
2023-03-12T20:02:29.866Z,33.58
2023-03-12T20:04:57.291Z,34.35
2023-03-12T20:07:24.961Z,31.63
2023-03-12T20:09:53.294Z,30.55
2023-03-12T20:12:20.492Z,36.05
2023-03-12T20:14:47.771Z,29.27
2023-03-12T20:17:15.607Z,29.55
2023-03-12T20:19:43.054Z,31.60
2023-03-12T20:22:11.537Z,32.55
2023-03-12T20:24:38.830Z,27.63
2023-03-12T20:27:08.615Z,34.55
2023-03-12T20:29:35.767Z,35.80
2023-03-12T20:32:05.258Z,33.72
2023-03-12T20:34:34.692Z,29.17
2023-03-12T20:37:01.864Z,29.98
2023-03-12T20:39:29.117Z,27.02
2023-03-12T20:41:57.906Z,30.90
2023-03-12T20:44:25.502Z,30.67
2023-03-12T20:46:52.767Z,27.60
2023-03-12T20:49:20.254Z,30.97
2023-03-12T20:51:47.578Z,29.75
2023-03-12T20:54:14.712Z,31.13
2023-03-12T20:56:43.855Z,31.17
2023-03-12T20:59:12.651Z,29.33
2023-03-12T21:01:40.050Z,29.33
2023-03-12T21:04:07.306Z,28.92
2023-03-12T21:06:34.404Z,31.50
2023-03-12T21:09:01.526Z,31.40
2023-03-12T21:11:28.770Z,29.45
2023-03-12T21:13:59.565Z,32.15
2023-03-12T21:16:27.447Z,29.05
2023-03-12T21:18:59.302Z,29.15
2023-03-12T21:21:28.129Z,30.25
2023-03-12T21:23:55.237Z,32.30
2023-03-12T21:26:22.385Z,33.22
2023-03-12T21:28:51.439Z,30.33
2023-03-12T21:31:21.480Z,29.40
2023-03-12T21:33:55.790Z,28.02
2023-03-12T21:36:23.434Z,28.00
2023-03-12T21:38:52.138Z,29.58
2023-03-12T21:41:20.594Z,30.00
2023-03-12T21:43:48.125Z,27.77
2023-03-12T21:46:24.786Z,26.87
2023-03-12T21:48:55.703Z,28.53
2023-03-12T21:51:26.813Z,26.00
2023-03-12T21:53:58.395Z,27.63
2023-03-12T21:56:28.201Z,28.10
2023-03-12T21:58:57.470Z,29.88
2023-03-12T22:01:25.291Z,28.90
2023-03-12T22:03:55.807Z,27.13
2023-03-12T22:06:23.226Z,31.25
2023-03-12T22:08:52.588Z,29.90
2023-03-12T22:11:20.964Z,23.85
2023-03-12T22:13:48.404Z,28.33
2023-03-12T22:16:16.486Z,28.52
2023-03-12T22:18:48.551Z,28.20
2023-03-12T22:21:20.770Z,28.25
2023-03-12T22:23:53.098Z,26.88
2023-03-12T22:26:22.651Z,30.45
2023-03-12T22:28:56.290Z,32.10
2023-03-12T22:31:28.063Z,25.85
2023-03-12T22:33:57.996Z,29.25
2023-03-12T22:36:25.559Z,30.88
2023-03-12T22:38:53.837Z,27.05
2023-03-12T22:41:24.768Z,30.57
2023-03-12T22:43:56.488Z,27.50
2023-03-12T22:46:28.757Z,28.35
2023-03-12T22:48:59.084Z,29.70
2023-03-12T22:51:27.760Z,27.23
2023-03-12T22:53:55.604Z,28.98
2023-03-12T22:56:23.495Z,26.45
2023-03-12T22:58:55.684Z,26.50
2023-03-12T23:01:24.598Z,27.75
2023-03-12T23:03:52.414Z,25.20
2023-03-12T23:06:26.845Z,22.98
2023-03-12T23:08:57.535Z,25.15
2023-03-12T23:11:32.130Z,25.58
2023-03-12T23:13:59.444Z,27.08
2023-03-12T23:16:27.104Z,22.00
2023-03-12T23:18:57.181Z,26.42
2023-03-12T23:21:25.302Z,30.67
2023-03-12T23:23:53.020Z,26.23
2023-03-12T23:26:24.540Z,21.95
2023-03-12T23:28:55.044Z,27.45
2023-03-12T23:31:24.356Z,20.97
2023-03-12T23:33:56.976Z,23.75
2023-03-12T23:36:31.398Z,27.95
2023-03-12T23:38:58.645Z,23.07
2023-03-12T23:41:35.319Z,24.63
2023-03-12T23:44:02.815Z,26.02
2023-03-12T23:46:30.301Z,25.60
2023-03-12T23:48:58.021Z,25.75
2023-03-12T23:51:31.833Z,25.13
2023-03-12T23:54:05.502Z,23.25
2023-03-12T23:56:40.632Z,22.67
2023-03-12T23:59:09.942Z,22.80
